TimeCDT,TemperatureF,Dew PointF,Humidity,Sea Level PressureIn,VisibilityMPH,Wind Direction,Wind SpeedMPH,Gust SpeedMPH,PrecipitationIn,Events,Conditions,WindDirDegrees,DateUTC
12:15 AM,60.8,55.4,82,30.17,10.0,WSW,4.6,-,N/A,,Clear,240,2013-05-27 05:15:00
12:35 AM,60.8,55.4,82,30.16,10.0,Calm,Calm,-,N/A,,Clear,0,2013-05-27 05:35:00
12:55 AM,59.0,55.4,88,30.16,10.0,Calm,Calm,-,N/A,,Clear,0,2013-05-27 05:55:00
1:15 AM,59.0,55.4,88,30.16,10.0,Calm,Calm,-,N/A,,Clear,0,2013-05-27 06:15:00
1:35 AM,59.0,55.4,88,30.16,10.0,Calm,Calm,-,N/A,,Clear,0,2013-05-27 06:35:00
1:55 AM,59.0,55.4,88,30.16,10.0,Calm,Calm,-,N/A,,Clear,0,2013-05-27 06:55:00
2:15 AM,57.2,55.4,94,30.15,10.0,Calm,Calm,-,N/A,,Clear,0,2013-05-27 07:15:00
2:35 AM,57.2,55.4,94,30.15,10.0,Calm,Calm,-,N/A,,Clear,0,2013-05-27 07:35:00
2:55 AM,57.2,53.6,88,30.15,10.0,Calm,Calm,-,N/A,,Clear,0,2013-05-27 07:55:00
3:15 AM,57.2,53.6,88,30.16,10.0,Calm,Calm,-,N/A,,Clear,0,2013-05-27 08:15:00
3:35 AM,57.2,53.6,88,30.16,10.0,Calm,Calm,-,N/A,,Clear,0,2013-05-27 08:35:00
3:55 AM,57.2,53.6,88,30.16,10.0,Calm,Calm,-,N/A,,Clear,0,2013-05-27 08:55:00
4:15 AM,57.2,53.6,88,30.16,10.0,Calm,Calm,-,N/A,,Clear,0,2013-05-27 09:15:00
4:35 AM,57.2,53.6,88,30.17,10.0,Calm,Calm,-,N/A,,Clear,0,2013-05-27 09:35:00
4:55 AM,55.4,53.6,94,30.17,10.0,Calm,Calm,-,N/A,,Clear,0,2013-05-27 09:55:00
5:15 AM,55.4,51.8,88,30.18,10.0,Calm,Calm,-,N/A,,Clear,0,2013-05-27 10:15:00
5:35 AM,55.4,51.8,88,30.19,10.0,Calm,Calm,-,N/A,,Clear,0,2013-05-27 10:35:00
5:55 AM,55.4,51.8,88,30.20,10.0,Calm,Calm,-,N/A,,Clear,0,2013-05-27 10:55:00
6:15 AM,55.4,53.6,94,30.20,10.0,Calm,Calm,-,N/A,,Clear,0,2013-05-27 11:15:00
6:35 AM,57.2,53.6,88,30.21,10.0,Calm,Calm,-,N/A,,Clear,0,2013-05-27 11:35:00
6:55 AM,59.0,55.4,88,30.21,10.0,Calm,Calm,-,N/A,,Clear,0,2013-05-27 11:55:00
7:15 AM,60.8,55.4,82,30.22,10.0,Calm,Calm,-,N/A,,Clear,0,2013-05-27 12:15:00
7:35 AM,60.8,57.2,88,30.22,10.0,Calm,Calm,-,N/A,,Clear,0,2013-05-27 12:35:00
7:55 AM,64.4,57.2,77,30.22,10.0,Calm,Calm,-,N/A,,Clear,0,2013-05-27 12:55:00
8:15 AM,64.4,59.0,83,30.22,10.0,Calm,Calm,-,N/A,,Clear,0,2013-05-27 13:15:00
8:35 AM,68.0,60.8,78,30.22,10.0,Calm,Calm,-,N/A,,Clear,0,2013-05-27 13:35:00
8:55 AM,69.8,59.0,68,30.21,10.0,Calm,Calm,-,N/A,,Clear,0,2013-05-27 13:55:00
9:15 AM,71.6,59.0,64,30.21,10.0,Calm,Calm,-,N/A,,Clear,0,2013-05-27 14:15:00
9:35 AM,73.4,60.8,65,30.20,10.0,East,3.5,-,N/A,,Clear,80,2013-05-27 14:35:00
9:55 AM,75.2,60.8,61,30.19,10.0,East,4.6,-,N/A,,Clear,100,2013-05-27 14:55:00
10:15 AM,75.2,57.2,53,30.19,10.0,Calm,Calm,-,N/A,,Clear,0,2013-05-27 15:15:00
10:35 AM,77.0,59.0,54,30.19,10.0,South,4.6,-,N/A,,Clear,180,2013-05-27 15:35:00
10:55 AM,78.8,59.0,51,30.18,10.0,SW,6.9,-,N/A,,Clear,230,2013-05-27 15:55:00
11:15 AM,80.6,60.8,51,30.18,10.0,SW,6.9,-,N/A,,Clear,220,2013-05-27 16:15:00
11:35 AM,80.6,62.6,54,30.18,10.0,South,4.6,-,N/A,,Clear,190,2013-05-27 16:35:00
11:55 AM,82.4,60.8,48,30.17,10.0,SW,9.2,-,N/A,,Clear,220,2013-05-27 16:55:00
12:15 PM,82.4,60.8,48,30.17,10.0,SW,6.9,-,N/A,,Clear,230,2013-05-27 17:15:00
12:35 PM,82.4,60.8,48,30.16,10.0,South,8.1,-,N/A,,Clear,170,2013-05-27 17:35:00
12:55 PM,82.4,62.6,51,30.15,10.0,South,5.8,-,N/A,,Partly Cloudy,190,2013-05-27 17:55:00
1:15 PM,82.4,60.8,48,30.14,10.0,South,8.1,-,N/A,,Mostly Cloudy,190,2013-05-27 18:15:00
1:35 PM,84.2,60.8,45,30.14,10.0,SW,5.8,16.1,N/A,,Scattered Clouds,230,2013-05-27 18:35:00
1:55 PM,84.2,60.8,45,30.14,10.0,SSW,6.9,-,N/A,,Scattered Clouds,210,2013-05-27 18:55:00
2:15 PM,84.2,57.2,40,30.13,10.0,South,5.8,-,N/A,,Scattered Clouds,190,2013-05-27 19:15:00
2:35 PM,84.2,59.0,42,30.12,10.0,SW,6.9,-,N/A,,Partly Cloudy,220,2013-05-27 19:35:00
2:55 PM,82.4,57.2,42,30.12,10.0,SW,6.9,-,N/A,,Partly Cloudy,220,2013-05-27 19:55:00
3:15 PM,82.4,57.2,42,30.12,10.0,South,6.9,-,N/A,,Partly Cloudy,190,2013-05-27 20:15:00
3:35 PM,84.2,57.2,40,30.12,10.0,SSW,4.6,-,N/A,,Partly Cloudy,210,2013-05-27 20:35:00
3:55 PM,84.2,57.2,40,30.11,10.0,SW,6.9,-,N/A,,Clear,220,2013-05-27 20:55:00
4:15 PM,84.2,57.2,40,30.11,10.0,SSW,8.1,-,N/A,,Clear,210,2013-05-27 21:15:00
4:35 PM,84.2,57.2,40,30.11,10.0,SSW,5.8,-,N/A,,Clear,200,2013-05-27 21:35:00
4:55 PM,82.4,57.2,42,30.11,10.0,SSW,8.1,-,N/A,,Clear,200,2013-05-27 21:55:00
5:15 PM,82.4,57.2,42,30.10,10.0,SSW,5.8,-,N/A,,Clear,210,2013-05-27 22:15:00
5:35 PM,82.4,59.0,45,30.10,9.0,SSW,3.5,-,N/A,,Clear,200,2013-05-27 22:35:00
5:55 PM,82.4,60.8,48,30.10,10.0,Calm,Calm,-,N/A,,Clear,0,2013-05-27 22:55:00
6:15 PM,82.4,60.8,48,30.10,10.0,Calm,Calm,-,N/A,,Clear,0,2013-05-27 23:15:00
6:35 PM,78.8,62.6,57,30.10,10.0,Calm,Calm,-,N/A,,Clear,0,2013-05-27 23:35:00
6:55 PM,78.8,64.4,61,30.09,10.0,Calm,Calm,-,N/A,,Clear,0,2013-05-27 23:55:00
7:15 PM,75.2,64.4,69,30.09,10.0,Calm,Calm,-,N/A,,Clear,0,2013-05-28 00:15:00
7:35 PM,73.4,62.6,69,30.09,10.0,SSW,3.5,-,N/A,,Clear,200,2013-05-28 00:35:00
7:55 PM,71.6,62.6,73,30.09,10.0,Calm,Calm,-,N/A,,Clear,0,2013-05-28 00:55:00
8:15 PM,71.6,62.6,73,30.09,10.0,Calm,Calm,-,N/A,,Clear,0,2013-05-28 01:15:00
8:35 PM,69.8,60.8,73,30.10,10.0,Calm,Calm,-,N/A,,Clear,0,2013-05-28 01:35:00
8:55 PM,69.8,62.6,78,30.10,10.0,Calm,Calm,-,N/A,,Clear,0,2013-05-28 01:55:00
9:15 PM,66.2,60.8,83,30.10,10.0,Calm,Calm,-,N/A,,Clear,0,2013-05-28 02:15:00
9:35 PM,66.2,60.8,83,30.10,10.0,Calm,Calm,-,N/A,,Clear,0,2013-05-28 02:35:00
9:55 PM,66.2,60.8,83,30.11,10.0,Calm,Calm,-,N/A,,Clear,0,2013-05-28 02:55:00
10:15 PM,66.2,60.8,83,30.11,10.0,Calm,Calm,-,N/A,,Clear,0,2013-05-28 03:15:00
10:35 PM,66.2,60.8,83,30.12,10.0,Calm,Calm,-,N/A,,Clear,0,2013-05-28 03:35:00
10:55 PM,64.4,60.8,88,30.12,10.0,Calm,Calm,-,N/A,,Clear,0,2013-05-28 03:55:00
11:15 PM,66.2,60.8,83,30.12,10.0,Calm,Calm,-,N/A,,Clear,0,2013-05-28 04:15:00
11:35 PM,66.2,60.8,83,30.12,10.0,Calm,Calm,-,N/A,,Clear,0,2013-05-28 04:35:00
11:55 PM,66.2,60.8,83,30.12,10.0,Calm,Calm,-,N/A,,Clear,0,2013-05-28 04:55:00